Time;durP1;ratioP1;P1;durP2;ratioP2;P2;SDS_P1;SDS_P2;PMS_P1;PMS_P2;Temp;Humidity;BMP_temperature;BMP_pressure;BME280_temperature;BME280_humidity;BME280_pressure;Samples;Min_cycle;Max_cycle;Signal;HPM_P1;HPM_P2
2023/04/08 00:01:01;;;;;;;10.82;9.50;;;5.20;99.90;;;;;;5072424;28;20076;-80
2023/04/08 00:03:27;;;;;;;10.18;8.38;;;5.20;99.90;;;;;;5073411;28;20055;-79
2023/04/08 00:05:53;;;;;;;9.90;8.65;;;5.10;99.90;;;;;;5073353;28;20420;-79
2023/04/08 00:08:18;;;;;;;9.73;8.07;;;5.10;99.90;;;;;;5072815;28;20060;-80
2023/04/08 00:10:44;;;;;;;10.18;8.30;;;5.50;99.90;;;;;;5088751;28;20052;-80
2023/04/08 00:13:10;;;;;;;9.90;8.77;;;5.30;99.90;;;;;;5073200;28;20044;-79
2023/04/08 00:15:36;;;;;;;10.27;9.18;;;5.10;99.90;;;;;;5073055;28;20045;-79
2023/04/08 00:18:02;;;;;;;12.02;9.27;;;5.10;99.90;;;;;;5073354;28;20131;-79
2023/04/08 00:20:28;;;;;;;11.82;9.50;;;5.10;99.90;;;;;;5072754;28;20052;-79
2023/04/08 00:22:53;;;;;;;10.63;9.57;;;5.30;99.90;;;;;;5072996;28;20052;-79
2023/04/08 00:25:19;;;;;;;12.07;9.98;;;5.00;99.90;;;;;;5072726;28;20045;-78
2023/04/08 00:27:45;;;;;;;13.43;10.25;;;4.90;99.90;;;;;;5072226;28;20055;-75
2023/04/08 00:30:11;;;;;;;11.55;10.07;;;4.90;99.90;;;;;;5088399;28;20056;-80
2023/04/08 00:32:36;;;;;;;14.70;11.00;;;4.90;99.90;;;;;;5072496;28;20080;-81
2023/04/08 00:35:03;;;;;;;12.80;11.27;;;4.80;99.90;;;;;;5072973;28;20049;-79
2023/04/08 00:37:30;;;;;;;13.98;10.52;;;4.80;99.90;;;;;;5072613;28;20052;-80
2023/04/08 00:39:56;;;;;;;16.40;11.73;;;4.80;99.90;;;;;;5073034;28;20041;-81
2023/04/08 00:42:21;;;;;;;13.15;11.43;;;4.70;99.90;;;;;;5072444;28;20488;-80
2023/04/08 00:44:47;;;;;;;16.02;12.32;;;4.80;99.90;;;;;;5071124;28;20553;-80
2023/04/08 00:47:15;;;;;;;12.35;10.93;;;5.20;99.90;;;;;;5071226;28;20064;-77
2023/04/08 00:49:41;;;;;;;13.10;11.70;;;4.70;99.90;;;;;;5072448;28;20137;-79
2023/04/08 00:52:06;;;;;;;13.48;12.15;;;4.70;99.90;;;;;;5072406;28;20059;-80
2023/04/08 00:54:32;;;;;;;13.75;11.55;;;4.70;99.90;;;;;;5072682;28;20125;-79
2023/04/08 00:57:01;;;;;;;16.80;12.20;;;4.70;99.90;;;;;;5072194;28;20041;-80
2023/04/08 00:59:29;;;;;;;13.05;11.75;;;4.70;99.90;;;;;;5072223;28;20044;-79
2023/04/08 01:01:55;;;;;;;15.98;12.00;;;4.60;99.90;;;;;;5072215;28;20120;-80
2023/04/08 01:04:58;;;;;;;13.23;10.88;;;4.60;99.90;;;;;;5072173;28;20052;-78
2023/04/08 01:07:45;;;;;;;13.50;11.60;;;4.60;99.90;;;;;;5070611;28;20083;-79
2023/04/08 01:10:30;;;;;;;15.75;13.23;;;4.60;99.90;;;;;;5072610;28;20048;-78
2023/04/08 01:13:00;;;;;;;14.23;12.73;;;4.60;99.90;;;;;;5071806;28;20581;-80
2023/04/08 01:15:30;;;;;;;18.48;12.43;;;4.70;99.90;;;;;;5072853;28;20145;-80
2023/04/08 01:17:57;;;;;;;14.27;11.65;;;4.70;99.90;;;;;;5072278;28;20079;-80
2023/04/08 01:20:24;;;;;;;15.20;11.52;;;4.90;99.90;;;;;;5071566;28;20504;-81
2023/04/08 01:22:59;;;;;;;14.10;11.82;;;4.60;99.90;;;;;;5072028;28;20127;-78
2023/04/08 01:25:33;;;;;;;12.98;11.65;;;4.60;99.90;;;;;;5071908;28;20094;-79
2023/04/08 01:28:15;;;;;;;14.98;13.13;;;4.90;99.90;;;;;;5071722;28;20052;-81
2023/04/08 01:30:42;;;;;;;14.38;10.20;;;4.60;99.90;;;;;;5072183;28;20048;-78
2023/04/08 01:33:14;;;;;;;15.60;12.43;;;4.50;99.90;;;;;;5071959;28;20083;-81
2023/04/08 01:35:40;;;;;;;16.83;12.85;;;4.50;99.90;;;;;;5071886;28;20043;-81
2023/04/08 01:38:08;;;;;;;13.88;12.27;;;4.60;99.90;;;;;;5072100;28;20384;-80
2023/04/08 01:40:36;;;;;;;15.38;12.48;;;4.60;99.90;;;;;;5072949;28;20120;-78
2023/04/08 01:43:05;;;;;;;15.77;12.55;;;4.60;99.90;;;;;;5075353;28;20453;-80
2023/04/08 01:45:31;;;;;;;13.02;11.73;;;4.60;99.90;;;;;;5074484;28;20056;-80
2023/04/08 01:47:58;;;;;;;14.88;12.00;;;4.50;99.90;;;;;;5076272;28;20044;-77
2023/04/08 01:50:25;;;;;;;15.30;13.52;;;4.50;99.90;;;;;;5074900;28;20048;-79
2023/04/08 01:52:53;;;;;;;15.32;11.40;;;4.50;99.90;;;;;;5075544;28;20049;-78
2023/04/08 01:55:20;;;;;;;17.02;13.55;;;4.50;99.90;;;;;;5075733;28;20082;-79
2023/04/08 01:57:51;;;;;;;16.63;12.77;;;4.40;99.90;;;;;;5075450;28;20044;-76
2023/04/08 02:00:21;;;;;;;16.08;12.35;;;4.50;99.90;;;;;;5075187;28;20113;-80
2023/04/08 02:02:48;;;;;;;16.50;14.30;;;4.40;99.90;;;;;;5075202;28;20040;-81
2023/04/08 02:05:14;;;;;;;14.60;12.50;;;4.40;99.90;;;;;;5074187;28;20051;-79
2023/04/08 02:07:40;;;;;;;15.75;13.00;;;4.40;99.90;;;;;;5074153;28;20041;-78
2023/04/08 02:10:06;;;;;;;14.95;13.00;;;4.40;99.90;;;;;;5075538;28;20051;-79
2023/04/08 02:12:35;;;;;;;15.98;14.38;;;4.40;99.90;;;;;;5075333;28;20094;-80
2023/04/08 02:15:00;;;;;;;14.75;12.80;;;4.60;99.90;;;;;;5091061;28;20146;-77
2023/04/08 02:17:46;;;;;;;17.73;14.45;;;4.30;99.90;;;;;;5075065;28;20060;-81
2023/04/08 02:20:22;;;;;;;15.27;13.07;;;4.30;99.90;;;;;;5074614;28;20553;-78
2023/04/08 02:23:08;;;;;;;16.25;14.57;;;4.20;99.90;;;;;;5075400;28;20056;-80
2023/04/08 02:25:39;;;;;;;15.55;13.88;;;4.10;99.90;;;;;;5075095;28;20473;-78
2023/04/08 02:28:08;;;;;;;17.45;14.35;;;4.10;99.90;;;;;;5074585;28;20088;-81
2023/04/08 02:30:35;;;;;;;18.33;14.65;;;4.00;99.90;;;;;;5073883;28;20060;-81
2023/04/08 02:33:04;;;;;;;16.85;14.35;;;4.00;99.90;;;;;;5076891;28;20041;-79
2023/04/08 02:35:31;;;;;;;21.48;15.95;;;3.90;99.90;;;;;;5077786;28;20048;-79
2023/04/08 02:37:57;;;;;;;17.20;15.23;;;3.90;99.90;;;;;;5079971;28;20075;-78
2023/04/08 02:40:29;;;;;;;20.33;16.42;;;3.90;99.90;;;;;;5080925;28;20457;-80
2023/04/08 02:42:55;;;;;;;18.87;14.03;;;3.90;99.90;;;;;;5077583;28;20105;-79
2023/04/08 02:45:22;;;;;;;18.52;15.90;;;4.00;99.90;;;;;;5074782;28;20064;-77
2023/04/08 02:47:47;;;;;;;19.45;16.05;;;4.00;99.90;;;;;;5075245;28;20178;-81
2023/04/08 02:50:13;;;;;;;18.85;16.27;;;4.00;99.90;;;;;;5074612;28;20079;-79
2023/04/08 02:52:39;;;;;;;17.98;16.10;;;4.00;99.90;;;;;;5074053;28;20055;-78
2023/04/08 02:55:08;;;;;;;21.80;16.23;;;4.10;99.90;;;;;;5074684;28;20057;-78
2023/04/08 02:57:35;;;;;;;17.00;15.20;;;4.00;99.90;;;;;;5074223;28;20493;-79
2023/04/08 03:00:03;;;;;;;23.85;17.70;;;3.90;99.90;;;;;;5074473;28;20049;-78
2023/04/08 03:02:28;;;;;;;22.05;16.58;;;3.90;99.90;;;;;;5073778;28;20059;-81
2023/04/08 03:04:54;;;;;;;19.38;16.58;;;3.90;99.90;;;;;;5090252;28;20040;-80
2023/04/08 03:07:20;;;;;;;19.13;16.23;;;3.90;99.90;;;;;;5089894;28;20052;-80
2023/04/08 03:09:45;;;;;;;20.48;16.88;;;3.90;99.90;;;;;;5074310;28;20090;-80
2023/04/08 03:12:11;;;;;;;21.85;16.65;;;4.30;99.90;;;;;;5073414;28;20064;-80
2023/04/08 03:14:37;;;;;;;23.42;17.75;;;3.90;99.90;;;;;;5074223;28;20084;-78
2023/04/08 03:17:02;;;;;;;19.20;17.20;;;3.90;99.90;;;;;;5074034;28;20389;-80
2023/04/08 03:19:28;;;;;;;18.30;16.38;;;4.00;99.90;;;;;;5074525;28;20047;-80
2023/04/08 03:21:54;;;;;;;22.75;17.65;;;4.10;99.90;;;;;;5090128;28;20488;-79
2023/04/08 03:24:19;;;;;;;20.10;17.08;;;3.80;99.90;;;;;;5074193;28;20397;-79
2023/04/08 03:26:45;;;;;;;22.08;16.67;;;3.80;99.90;;;;;;5074112;28;20493;-79
2023/04/08 03:29:10;;;;;;;18.70;15.80;;;4.60;99.90;;;;;;5074066;28;20056;-80
2023/04/08 03:31:36;;;;;;;22.05;16.00;;;3.80;99.90;;;;;;5073402;28;20076;-80
2023/04/08 03:34:02;;;;;;;21.05;16.02;;;3.80;99.90;;;;;;5073496;28;20127;-79
2023/04/08 03:36:27;;;;;;;21.30;17.30;;;3.70;99.90;;;;;;5074000;28;20423;-79
2023/04/08 03:38:53;;;;;;;19.35;17.27;;;3.70;99.90;;;;;;5073754;28;20080;-80
2023/04/08 03:41:19;;;;;;;21.33;16.50;;;3.70;99.90;;;;;;5073449;28;20053;-78
2023/04/08 03:43:45;;;;;;;24.05;15.63;;;3.70;99.90;;;;;;5072325;28;20056;-79
2023/04/08 03:46:11;;;;;;;22.00;15.48;;;3.70;99.90;;;;;;5073230;28;20058;-80
2023/04/08 03:48:37;;;;;;;22.20;16.40;;;3.70;99.90;;;;;;5073290;28;20047;-80
2023/04/08 03:51:02;;;;;;;22.85;18.77;;;3.70;99.90;;;;;;5073187;28;20044;-78
2023/04/08 03:53:28;;;;;;;22.38;18.52;;;3.70;99.90;;;;;;5073281;28;20158;-78
2023/04/08 03:55:55;;;;;;;23.35;17.70;;;3.70;99.90;;;;;;5073119;28;20045;-80
2023/04/08 03:58:21;;;;;;;20.23;16.85;;;3.70;99.90;;;;;;5073747;28;20133;-78
2023/04/08 04:00:46;;;;;;;25.00;19.48;;;3.70;99.90;;;;;;5073186;28;20407;-80
2023/04/08 04:03:12;;;;;;;21.48;16.67;;;4.40;99.90;;;;;;5071185;28;20056;-80
2023/04/08 04:05:39;;;;;;;19.98;16.65;;;3.70;99.90;;;;;;5072912;28;20515;-79
2023/04/08 04:08:05;;;;;;;22.40;15.77;;;3.70;99.90;;;;;;5073058;28;20452;-81
2023/04/08 04:10:30;;;;;;;21.35;17.05;;;3.70;99.90;;;;;;5073050;28;20044;-78
2023/04/08 04:12:56;;;;;;;24.85;18.23;;;3.70;99.90;;;;;;5072991;28;20131;-79
2023/04/08 04:15:22;;;;;;;23.90;16.92;;;3.70;99.90;;;;;;5072754;28;20090;-80
2023/04/08 04:17:49;;;;;;;21.35;17.10;;;3.80;99.90;;;;;;5072826;28;20048;-81
2023/04/08 04:20:18;;;;;;;21.38;17.52;;;3.80;99.90;;;;;;5073163;28;20443;-79
2023/04/08 04:22:44;;;;;;;23.05;17.45;;;3.80;99.90;;;;;;5072764;28;20051;-80
2023/04/08 04:25:10;;;;;;;21.27;17.23;;;2.80;99.90;;;;;;5072546;28;20048;-78
2023/04/08 04:27:35;;;;;;;21.60;19.38;;;3.90;99.90;;;;;;5072738;28;20127;-78
2023/04/08 04:30:02;;;;;;;22.75;18.08;;;3.90;99.90;;;;;;5072285;28;20049;-79
2023/04/08 04:32:28;;;;;;;27.15;19.52;;;3.90;99.90;;;;;;5072518;28;20393;-80
2023/04/08 04:34:53;;;;;;;19.67;16.65;;;3.90;99.90;;;;;;5072723;28;20048;-80
2023/04/08 04:37:19;;;;;;;24.73;19.02;;;3.90;99.90;;;;;;5072534;28;20082;-79
2023/04/08 04:39:45;;;;;;;24.02;19.05;;;4.00;99.90;;;;;;5072819;28;20040;-79
2023/04/08 04:42:11;;;;;;;25.83;18.88;;;3.90;99.90;;;;;;5072299;28;20504;-79
2023/04/08 04:44:37;;;;;;;25.08;18.80;;;3.90;99.90;;;;;;5071276;28;20067;-81
2023/04/08 04:47:02;;;;;;;28.08;20.02;;;4.00;99.90;;;;;;5072411;28;20044;-80
2023/04/08 04:49:28;;;;;;;26.40;20.10;;;4.00;99.90;;;;;;5072366;28;20478;-78
2023/04/08 04:51:54;;;;;;;28.33;21.73;;;4.30;99.90;;;;;;5072895;28;20055;-78
2023/04/08 04:54:20;;;;;;;27.38;21.42;;;4.00;99.90;;;;;;5072262;28;20427;-80
2023/04/08 04:56:45;;;;;;;28.92;20.63;;;4.00;99.90;;;;;;5071121;28;20094;-80
2023/04/08 04:59:11;;;;;;;24.92;20.20;;;4.10;99.90;;;;;;5072357;28;20457;-80
2023/04/08 05:01:39;;;;;;;28.50;21.10;;;4.10;99.90;;;;;;5072006;28;20094;-78
2023/04/08 05:04:05;;;;;;;23.13;20.13;;;4.10;99.90;;;;;;5072107;28;20053;-78
2023/04/08 05:06:32;;;;;;;29.00;21.58;;;4.40;99.90;;;;;;5072336;28;20056;-79
2023/04/08 05:08:58;;;;;;;28.10;20.42;;;4.10;99.90;;;;;;5071897;28;20123;-78
2023/04/08 05:11:24;;;;;;;24.17;19.58;;;4.20;99.90;;;;;;5072452;28;20094;-79
2023/04/08 05:13:49;;;;;;;26.20;19.00;;;4.50;99.90;;;;;;5072084;28;20124;-79
2023/04/08 05:16:15;;;;;;;27.83;20.75;;;4.40;99.90;;;;;;5075977;28;20098;-79
2023/04/08 05:18:41;;;;;;;24.58;19.55;;;4.20;99.90;;;;;;5076352;28;20504;-79
2023/04/08 05:21:07;;;;;;;24.50;19.20;;;4.50;99.90;;;;;;5076516;28;20076;-78
2023/04/08 05:23:34;;;;;;;26.23;19.42;;;4.40;99.90;;;;;;5075979;28;20576;-78
2023/04/08 05:26:00;;;;;;;23.73;19.20;;;4.40;99.90;;;;;;5076170;28;20052;-80
2023/04/08 05:28:26;;;;;;;25.23;19.10;;;4.50;99.90;;;;;;5076084;28;20048;-80
2023/04/08 05:30:53;;;;;;;24.77;19.20;;;4.50;99.90;;;;;;5076359;28;20492;-79
2023/04/08 05:33:19;;;;;;;28.38;21.20;;;4.50;99.90;;;;;;5075016;28;20045;-80
2023/04/08 05:35:45;;;;;;;27.73;20.15;;;4.60;99.90;;;;;;5076127;28;20048;-78
2023/04/08 05:38:11;;;;;;;28.00;19.88;;;4.70;99.90;;;;;;5074642;28;20129;-80
2023/04/08 05:40:36;;;;;;;27.23;22.25;;;4.80;99.90;;;;;;5075586;28;20127;-78
2023/04/08 05:43:02;;;;;;;25.63;20.30;;;4.90;99.90;;;;;;5078366;28;20078;-80
2023/04/08 05:45:28;;;;;;;26.08;21.52;;;5.00;99.90;;;;;;5081606;28;20094;-78
2023/04/08 05:47:54;;;;;;;28.10;21.67;;;5.00;99.90;;;;;;5079151;28;20051;-79
2023/04/08 05:50:20;;;;;;;28.42;21.38;;;5.10;99.90;;;;;;5077387;28;20119;-80
2023/04/08 05:52:45;;;;;;;27.08;20.33;;;5.20;99.90;;;;;;5077301;28;20048;-79
2023/04/08 05:55:14;;;;;;;28.52;22.00;;;5.30;99.90;;;;;;5091673;28;20049;-80
2023/04/08 05:57:40;;;;;;;28.52;21.05;;;5.40;99.90;;;;;;5075685;28;20054;-79
2023/04/08 06:00:08;;;;;;;30.88;22.58;;;5.30;99.90;;;;;;5075236;28;20471;-80
2023/04/08 06:02:35;;;;;;;27.40;20.20;;;5.30;99.90;;;;;;5075164;28;20483;-80
2023/04/08 06:05:02;;;;;;;27.63;22.13;;;5.40;99.90;;;;;;5074888;28;20345;-78
2023/04/08 06:07:28;;;;;;;26.33;21.55;;;5.40;99.90;;;;;;5075230;28;20048;-79
2023/04/08 06:09:54;;;;;;;27.40;21.17;;;5.40;99.90;;;;;;5075372;28;20127;-79
2023/04/08 06:12:20;;;;;;;26.73;21.92;;;5.40;99.90;;;;;;5075098;28;20056;-80
2023/04/08 06:14:46;;;;;;;24.83;21.73;;;5.40;99.90;;;;;;5075225;28;20417;-81
2023/04/08 06:17:11;;;;;;;30.70;22.15;;;5.50;99.90;;;;;;5074962;28;20475;-81
2023/04/08 06:19:37;;;;;;;25.58;22.23;;;5.50;99.90;;;;;;5073534;28;20135;-78
2023/04/08 06:22:02;;;;;;;25.08;19.65;;;5.50;99.90;;;;;;5074915;28;20097;-78
2023/04/08 06:24:28;;;;;;;30.80;24.63;;;5.70;99.90;;;;;;5075222;28;20391;-80
2023/04/08 06:26:55;;;;;;;29.30;21.42;;;5.70;99.90;;;;;;5073978;28;20366;-79
2023/04/08 06:29:21;;;;;;;31.95;23.15;;;5.80;99.90;;;;;;5074122;28;20148;-78
2023/04/08 06:31:48;;;;;;;26.80;22.35;;;6.00;99.90;;;;;;5074654;28;20051;-80
2023/04/08 06:34:14;;;;;;;28.13;21.80;;;6.00;99.90;;;;;;5074649;28;20117;-76
2023/04/08 06:36:40;;;;;;;29.25;21.25;;;6.10;99.90;;;;;;5073718;28;20075;-80
2023/04/08 06:39:06;;;;;;;28.90;21.27;;;6.20;99.90;;;;;;5074044;28;20083;-79
2023/04/08 06:41:31;;;;;;;25.90;20.60;;;6.30;99.90;;;;;;5074412;28;20087;-81
2023/04/08 06:43:57;;;;;;;27.00;20.45;;;6.40;99.90;;;;;;5074227;28;20052;-81
2023/04/08 06:46:24;;;;;;;26.42;20.10;;;6.70;99.90;;;;;;5074310;28;20056;-81
2023/04/08 06:48:50;;;;;;;23.88;19.60;;;6.90;99.90;;;;;;5075098;28;20048;-81
2023/04/08 06:51:15;;;;;;;24.33;19.52;;;7.10;99.90;;;;;;5074041;28;20461;-78
2023/04/08 06:53:41;;;;;;;26.70;18.80;;;7.20;99.90;;;;;;5073506;28;20048;-80
2023/04/08 06:56:07;;;;;;;25.13;18.70;;;7.00;99.90;;;;;;5074572;28;20446;-81
2023/04/08 06:58:32;;;;;;;22.88;17.98;;;7.10;99.90;;;;;;5074108;28;20053;-83
2023/04/08 07:00:59;;;;;;;23.30;17.88;;;7.00;99.90;;;;;;5074023;28;20043;-80
2023/04/08 07:03:25;;;;;;;20.27;16.48;;;7.20;99.90;;;;;;5089894;28;20114;-81
2023/04/08 07:05:51;;;;;;;17.73;14.25;;;7.50;99.90;;;;;;5073096;28;20464;-81
2023/04/08 07:08:17;;;;;;;19.02;15.43;;;7.70;99.90;;;;;;5074096;28;20076;-81
2023/04/08 07:10:43;;;;;;;20.90;15.23;;;7.80;99.90;;;;;;5073561;28;20122;-82
2023/04/08 07:13:09;;;;;;;22.02;15.05;;;7.80;99.90;;;;;;5072700;28;20091;-78
2023/04/08 07:15:35;;;;;;;18.50;15.25;;;7.70;99.90;;;;;;5073855;28;20056;-83
2023/04/08 07:18:03;;;;;;;22.60;15.07;;;7.60;99.90;;;;;;5073250;28;20220;-78
2023/04/08 07:20:29;;;;;;;20.88;15.57;;;7.60;99.90;;;;;;5073784;28;20080;-83
2023/04/08 07:22:54;;;;;;;21.23;16.27;;;7.70;99.90;;;;;;5074291;28;20056;-81
2023/04/08 07:25:20;;;;;;;20.52;15.70;;;7.70;99.90;;;;;;5073444;28;20067;-83
2023/04/08 07:27:46;;;;;;;18.92;15.15;;;7.60;99.90;;;;;;5073538;28;20044;-82
2023/04/08 07:30:12;;;;;;;18.20;14.55;;;7.60;99.90;;;;;;5074233;28;20052;-78
2023/04/08 07:32:38;;;;;;;18.50;15.57;;;7.60;99.90;;;;;;5073981;28;20457;-78
2023/04/08 07:35:04;;;;;;;19.60;15.20;;;7.60;99.90;;;;;;5073909;28;20041;-83
2023/04/08 07:37:29;;;;;;;21.52;17.10;;;7.60;99.90;;;;;;5073384;28;20044;-81
2023/04/08 07:39:55;;;;;;;19.83;16.13;;;7.50;99.90;;;;;;5073055;28;20044;-82
2023/04/08 07:42:21;;;;;;;21.65;16.33;;;7.50;99.90;;;;;;5073480;28;20048;-78
2023/04/08 07:44:47;;;;;;;20.55;16.10;;;7.50;99.90;;;;;;5072122;28;20064;-79
2023/04/08 07:47:12;;;;;;;23.98;16.10;;;7.50;99.90;;;;;;5073297;28;20044;-80
2023/04/08 07:49:39;;;;;;;18.75;13.90;;;7.60;99.90;;;;;;5072756;28;20048;-79
2023/04/08 07:52:05;;;;;;;20.85;14.80;;;7.80;99.90;;;;;;5073077;28;20048;-78
2023/04/08 07:54:34;;;;;;;18.00;15.77;;;7.80;99.90;;;;;;5088710;28;20048;-78
2023/04/08 07:57:01;;;;;;;17.92;15.02;;;7.60;99.90;;;;;;5073056;28;20045;-80
2023/04/08 07:59:27;;;;;;;17.95;14.70;;;7.50;99.90;;;;;;5072795;28;20080;-80
2023/04/08 08:01:53;;;;;;;20.42;15.80;;;7.50;99.90;;;;;;5072679;28;20080;-80
2023/04/08 08:04:18;;;;;;;19.38;14.63;;;7.90;99.90;;;;;;5073288;28;20437;-82
2023/04/08 08:06:44;;;;;;;16.02;12.77;;;9.30;99.90;;;;;;5072876;28;20048;-79
2023/04/08 08:09:10;;;;;;;17.80;13.45;;;10.40;99.90;;;;;;5072749;28;20137;-80
2023/04/08 08:11:35;;;;;;;19.75;14.10;;;10.70;99.90;;;;;;5072680;28;20156;-78
2023/04/08 08:14:01;;;;;;;17.90;12.70;;;9.70;99.90;;;;;;5072526;28;20048;-80
2023/04/08 08:16:28;;;;;;;17.52;12.88;;;9.50;99.90;;;;;;5055314;28;20128;-81
2023/04/08 08:18:54;;;;;;;14.15;11.48;;;10.10;99.90;;;;;;5072581;28;20120;-79
2023/04/08 08:21:19;;;;;;;16.27;11.77;;;10.50;99.90;;;;;;5072563;28;20451;-79
2023/04/08 08:23:46;;;;;;;16.00;11.93;;;10.90;99.90;;;;;;5072380;28;20484;-78
2023/04/08 08:26:11;;;;;;;12.15;10.23;;;11.20;99.90;;;;;;5072495;28;20153;-78
2023/04/08 08:28:38;;;;;;;14.68;10.75;;;11.40;99.90;;;;;;5072484;28;20088;-81
2023/04/08 08:31:04;;;;;;;14.57;10.52;;;12.10;99.90;;;;;;5072416;28;20036;-81
2023/04/08 08:33:31;;;;;;;13.68;9.57;;;12.80;99.90;;;;;;5071880;28;20123;-80
2023/04/08 08:35:57;;;;;;;14.93;11.82;;;12.50;99.90;;;;;;5072386;28;20098;-78
2023/04/08 08:38:23;;;;;;;14.38;10.80;;;11.60;99.90;;;;;;5072257;28;20475;-83
2023/04/08 08:40:56;;;;;;;15.23;11.00;;;11.40;99.90;;;;;;5072207;28;20055;-81
2023/04/08 08:43:23;;;;;;;12.73;10.45;;;11.10;99.90;;;;;;5070929;28;20105;-81
2023/04/08 08:45:49;;;;;;;15.43;11.35;;;11.00;99.90;;;;;;5071254;28;20115;-79
2023/04/08 08:48:14;;;;;;;15.07;9.98;;;10.70;99.90;;;;;;5072855;28;20470;-80
2023/04/08 08:50:40;;;;;;;19.55;12.15;;;10.70;99.90;;;;;;5072044;28;20445;-76
2023/04/08 08:53:06;;;;;;;17.17;12.07;;;10.30;99.90;;;;;;5079778;28;20163;-79
2023/04/08 08:55:35;;;;;;;14.10;10.73;;;10.10;99.90;;;;;;5081039;28;20454;-73
2023/04/08 08:58:01;;;;;;;15.27;10.07;;;9.50;99.90;;;;;;5085948;28;20052;-76
2023/04/08 09:00:35;;;;;;;14.57;11.40;;;9.40;99.90;;;;;;5078626;28;20042;-79
2023/04/08 09:03:22;;;;;;;16.08;12.25;;;9.10;99.90;;;;;;5073294;28;20044;-83
2023/04/08 09:06:00;;;;;;;15.35;12.25;;;8.80;99.90;;;;;;5072006;28;20060;-81
2023/04/08 09:08:31;;;;;;;16.10;11.70;;;8.50;99.90;;;;;;5072599;28;20048;-83
2023/04/08 09:11:15;;;;;;;16.10;11.60;;;8.40;99.90;;;;;;5072663;28;20040;-79
2023/04/08 09:13:42;;;;;;;13.98;12.07;;;8.50;99.90;;;;;;5072712;28;20084;-78
2023/04/08 09:16:09;;;;;;;18.00;11.82;;;8.40;99.90;;;;;;5072745;28;20078;-82
2023/04/08 09:18:37;;;;;;;13.98;12.35;;;8.30;99.90;;;;;;5071640;28;20416;-77
2023/04/08 09:21:05;;;;;;;16.15;12.93;;;8.30;99.90;;;;;;5071308;28;20071;-79
2023/04/08 09:23:45;;;;;;;15.15;13.55;;;8.20;99.90;;;;;;5072924;28;20049;-81
2023/04/08 09:26:11;;;;;;;18.88;12.07;;;8.20;99.90;;;;;;5071269;28;20437;-83
2023/04/08 09:28:39;;;;;;;18.80;13.68;;;8.10;99.90;;;;;;5072472;28;20048;-82
2023/04/08 09:31:25;;;;;;;16.63;12.90;;;8.30;99.90;;;;;;5072532;28;20458;-83
2023/04/08 09:33:56;;;;;;;14.90;13.27;;;8.30;99.90;;;;;;5071909;28;20489;-81
2023/04/08 09:36:22;;;;;;;15.45;11.57;;;8.30;99.90;;;;;;5070934;28;20055;-83
2023/04/08 09:38:47;;;;;;;13.27;11.10;;;8.50;99.90;;;;;;5072233;28;20044;-84
2023/04/08 09:41:19;;;;;;;14.75;11.95;;;8.70;99.90;;;;;;5072494;28;20087;-80
2023/04/08 09:43:54;;;;;;;16.42;12.85;;;8.90;99.90;;;;;;5071941;28;20060;-79
2023/04/08 09:46:38;;;;;;;14.38;11.90;;;8.80;99.90;;;;;;5071957;28;20052;-83
2023/04/08 09:49:17;;;;;;;14.27;11.35;;;9.00;99.90;;;;;;5071852;28;20045;-78
2023/04/08 09:52:06;;;;;;;11.15;9.85;;;9.10;99.90;;;;;;5072216;28;20051;-81
2023/04/08 09:54:42;;;;;;;11.93;10.52;;;9.00;99.90;;;;;;5072178;28;20438;-83
2023/04/08 09:57:12;;;;;;;13.98;9.63;;;9.00;99.90;;;;;;5072150;28;20547;-77
2023/04/08 09:59:47;;;;;;;14.05;10.10;;;9.00;99.90;;;;;;5072181;28;20052;-80
2023/04/08 10:02:18;;;;;;;13.15;9.70;;;9.00;99.90;;;;;;5074553;28;20410;-81
2023/04/08 10:04:47;;;;;;;14.65;10.23;;;8.90;99.90;;;;;;5075293;28;20053;-81
2023/04/08 10:07:14;;;;;;;14.30;11.48;;;8.90;99.90;;;;;;5075550;28;20037;-80
2023/04/08 10:09:42;;;;;;;14.73;10.63;;;8.90;99.90;;;;;;5075779;28;20083;-81
2023/04/08 10:12:08;;;;;;;15.43;11.32;;;8.90;99.90;;;;;;5075601;28;20049;-82
2023/04/08 10:14:34;;;;;;;11.43;10.05;;;9.00;99.90;;;;;;5076466;28;20080;-82
2023/04/08 10:17:35;;;;;;;14.13;9.48;;;9.00;99.90;;;;;;5074306;28;20048;-78
2023/04/08 10:20:01;;;;;;;11.90;9.90;;;9.00;99.90;;;;;;5065471;28;20099;-82
2023/04/08 10:22:32;;;;;;;11.70;9.63;;;9.10;99.90;;;;;;5077291;28;20044;-84
2023/04/08 10:25:17;;;;;;;12.50;9.90;;;9.20;99.90;;;;;;5091923;28;20048;-81
2023/04/08 10:27:44;;;;;;;11.52;9.20;;;9.10;99.90;;;;;;5075664;28;20090;-81
2023/04/08 10:30:27;;;;;;;12.40;9.68;;;9.20;99.90;;;;;;5075889;28;20038;-82
2023/04/08 10:32:58;;;;;;;13.70;10.05;;;9.30;99.90;;;;;;5074806;28;20055;-81
2023/04/08 10:35:41;;;;;;;12.68;10.18;;;9.10;99.90;;;;;;5075121;28;20068;-79
2023/04/08 10:38:07;;;;;;;13.65;10.27;;;9.20;99.90;;;;;;5077912;28;20379;-82
2023/04/08 10:40:41;;;;;;;12.13;9.18;;;9.20;99.90;;;;;;5075055;28;20051;-81
2023/04/08 10:43:08;;;;;;;15.02;10.68;;;9.30;99.90;;;;;;5073379;28;20059;-80
2023/04/08 10:45:34;;;;;;;16.15;10.80;;;9.40;99.90;;;;;;5074327;28;20076;-79
2023/04/08 10:48:12;;;;;;;14.25;11.05;;;9.50;99.90;;;;;;5074567;28;20049;-79
2023/04/08 10:50:38;;;;;;;13.20;10.43;;;9.40;99.90;;;;;;5073754;28;20106;-84
2023/04/08 10:53:05;;;;;;;15.20;10.23;;;9.50;99.90;;;;;;5074766;28;20109;-80
2023/04/08 10:55:31;;;;;;;13.98;10.73;;;9.60;99.90;;;;;;5074343;28;20052;-83
2023/04/08 10:58:07;;;;;;;15.68;11.55;;;9.70;99.90;;;;;;5074458;28;20131;-85
2023/04/08 11:00:38;;;;;;;14.00;10.63;;;9.80;99.90;;;;;;5073235;28;20600;-83
2023/04/08 11:03:06;;;;;;;15.57;10.88;;;9.90;99.90;;;;;;5073467;28;20056;-82
2023/04/08 11:05:32;;;;;;;16.27;12.38;;;9.90;99.90;;;;;;5074559;28;20055;-84
2023/04/08 11:07:59;;;;;;;14.10;11.00;;;9.90;99.90;;;;;;5074322;28;20049;-81
2023/04/08 11:10:25;;;;;;;17.88;11.73;;;9.90;99.90;;;;;;5074060;28;20040;-79
2023/04/08 11:12:53;;;;;;;15.38;11.68;;;9.90;99.90;;;;;;5072561;28;20084;-83
2023/04/08 11:15:20;;;;;;;18.73;11.95;;;9.90;99.90;;;;;;5072919;28;20059;-82
2023/04/08 11:17:47;;;;;;;17.38;12.68;;;10.00;99.90;;;;;;5073911;28;20052;-82
2023/04/08 11:20:13;;;;;;;19.40;13.05;;;10.10;99.90;;;;;;5074108;28;20469;-80
2023/04/08 11:22:39;;;;;;;19.52;13.70;;;10.20;99.90;;;;;;5073925;28;20048;-81
2023/04/08 11:25:07;;;;;;;19.52;12.90;;;10.30;99.90;;;;;;5073693;28;20044;-82
2023/04/08 11:27:34;;;;;;;19.42;13.75;;;10.40;99.90;;;;;;5073833;28;20109;-82
2023/04/08 11:30:01;;;;;;;23.60;15.23;;;10.40;99.90;;;;;;5072837;28;20060;-78
2023/04/08 11:32:27;;;;;;;20.52;14.50;;;10.20;99.90;;;;;;5056127;28;20065;-83
2023/04/08 11:34:53;;;;;;;22.23;14.93;;;10.20;99.90;;;;;;5073389;28;20054;-80
2023/04/08 11:37:20;;;;;;;22.63;15.27;;;10.00;99.90;;;;;;5072763;28;20403;-83
2023/04/08 11:39:45;;;;;;;26.10;16.70;;;10.10;99.90;;;;;;5073346;28;20170;-80
2023/04/08 11:42:32;;;;;;;26.92;16.85;;;10.10;99.90;;;;;;5073422;28;20124;-79
2023/04/08 11:44:58;;;;;;;25.92;17.30;;;10.20;99.90;;;;;;5073350;28;20060;-84
2023/04/08 11:47:32;;;;;;;27.00;18.48;;;10.10;99.90;;;;;;5073459;28;20053;-76
2023/04/08 11:49:58;;;;;;;25.58;16.67;;;10.10;99.90;;;;;;5072250;28;20052;-83
2023/04/08 11:52:43;;;;;;;25.35;17.30;;;10.10;99.90;;;;;;5073186;28;20110;-81
2023/04/08 11:55:11;;;;;;;28.40;17.38;;;10.10;99.90;;;;;;5072833;28;20117;-80
2023/04/08 11:57:38;;;;;;;25.30;18.58;;;10.00;99.90;;;;;;5073104;28;20083;-81
2023/04/08 12:00:07;;;;;;;26.23;17.67;;;10.00;99.90;;;;;;5077246;28;20071;-79
2023/04/08 12:02:33;;;;;;;27.45;16.95;;;9.90;99.90;;;;;;5099562;28;20083;-80
2023/04/08 12:04:58;;;;;;;26.25;17.02;;;10.00;99.90;;;;;;5082157;28;20060;-80
2023/04/08 12:07:24;;;;;;;22.52;16.02;;;9.90;99.90;;;;;;5081673;28;20047;-80
2023/04/08 12:09:50;;;;;;;25.05;15.00;;;10.00;99.90;;;;;;5077433;28;20059;-81
2023/04/08 12:12:16;;;;;;;24.00;15.52;;;10.00;99.90;;;;;;5073401;28;20044;-81
2023/04/08 12:14:41;;;;;;;22.05;15.35;;;10.10;99.90;;;;;;5089590;28;20131;-80
2023/04/08 12:17:07;;;;;;;25.08;16.42;;;10.20;99.90;;;;;;5073294;28;20535;-79
2023/04/08 12:19:32;;;;;;;24.20;16.20;;;10.20;99.90;;;;;;5071767;28;20041;-81
2023/04/08 12:21:58;;;;;;;19.08;13.52;;;10.10;99.90;;;;;;5072905;28;20040;-81
2023/04/08 12:24:24;;;;;;;23.77;15.13;;;10.20;99.90;;;;;;5072705;28;20098;-78
2023/04/08 12:26:50;;;;;;;26.08;15.52;;;10.30;99.90;;;;;;5073328;28;20369;-85
2023/04/08 12:29:15;;;;;;;21.77;16.25;;;10.30;99.90;;;;;;5072906;28;20132;-75
2023/04/08 12:31:41;;;;;;;24.52;17.58;;;10.30;99.90;;;;;;5072733;28;20059;-81
2023/04/08 12:34:07;;;;;;;24.65;17.13;;;10.10;99.90;;;;;;5072572;28;20045;-85
2023/04/08 12:36:32;;;;;;;27.13;17.90;;;10.10;99.90;;;;;;5073300;28;20055;-77
2023/04/08 12:38:58;;;;;;;26.85;17.75;;;9.90;99.90;;;;;;5072602;28;20509;-78